sensor_id;sensor_type;location;lat;lon;timestamp;temperature;humidity
17529;DHT22;8882;53.192;8.184;2022-11-09T05:30:37;13.20;99.90
17529;DHT22;8882;53.192;8.184;2022-11-09T05:33:03;13.20;99.90
17529;DHT22;8882;53.192;8.184;2022-11-09T05:35:28;13.20;99.90
17529;DHT22;8882;53.192;8.184;2022-11-09T05:37:54;13.20;99.90
17529;DHT22;8882;53.192;8.184;2022-11-09T05:40:20;13.20;99.90
17529;DHT22;8882;53.192;8.184;2022-11-09T05:42:46;13.20;99.90
17529;DHT22;8882;53.192;8.184;2022-11-09T05:45:14;13.20;99.90
17529;DHT22;8882;53.192;8.184;2022-11-09T05:47:42;13.10;99.90
17529;DHT22;8882;53.192;8.184;2022-11-09T05:50:09;13.10;99.90
17529;DHT22;8882;53.192;8.184;2022-11-09T05:52:35;13.10;99.90
17529;DHT22;8882;53.192;8.184;2022-11-09T05:55:01;13.00;99.90
17529;DHT22;8882;53.192;8.184;2022-11-09T05:57:27;13.10;99.90
17529;DHT22;8882;53.192;8.184;2022-11-09T05:59:52;13.00;99.90
17529;DHT22;8882;53.192;8.184;2022-11-09T06:02:18;13.00;99.90
17529;DHT22;8882;53.192;8.184;2022-11-09T06:04:44;13.00;99.90
17529;DHT22;8882;53.192;8.184;2022-11-09T06:07:09;13.00;99.90
17529;DHT22;8882;53.192;8.184;2022-11-09T06:09:35;13.00;99.90
17529;DHT22;8882;53.192;8.184;2022-11-09T06:12:00;13.00;99.90
17529;DHT22;8882;53.192;8.184;2022-11-09T06:14:26;13.10;99.90
17529;DHT22;8882;53.192;8.184;2022-11-09T06:16:51;13.00;99.90
17529;DHT22;8882;53.192;8.184;2022-11-09T06:19:17;13.00;99.90
17529;DHT22;8882;53.192;8.184;2022-11-09T06:21:42;13.00;99.90
17529;DHT22;8882;53.192;8.184;2022-11-09T06:24:09;13.00;99.90
17529;DHT22;8882;53.192;8.184;2022-11-09T06:26:35;12.90;99.90
17529;DHT22;8882;53.192;8.184;2022-11-09T06:29:00;12.90;99.90
17529;DHT22;8882;53.192;8.184;2022-11-09T06:31:26;12.90;99.90
17529;DHT22;8882;53.192;8.184;2022-11-09T06:33:52;12.90;99.90
17529;DHT22;8882;53.192;8.184;2022-11-09T06:36:18;12.90;99.90
17529;DHT22;8882;53.192;8.184;2022-11-09T06:38:46;12.90;99.90
17529;DHT22;8882;53.192;8.184;2022-11-09T06:41:12;12.90;99.90
17529;DHT22;8882;53.192;8.184;2022-11-09T06:43:37;12.90;99.90
17529;DHT22;8882;53.192;8.184;2022-11-09T06:46:04;12.90;99.90
17529;DHT22;8882;53.192;8.184;2022-11-09T06:48:29;12.80;99.90
17529;DHT22;8882;53.192;8.184;2022-11-09T06:50:59;12.80;99.90
17529;DHT22;8882;53.192;8.184;2022-11-09T06:53:25;12.80;99.90
17529;DHT22;8882;53.192;8.184;2022-11-09T06:55:57;12.80;99.90
17529;DHT22;8882;53.192;8.184;2022-11-09T06:58:22;12.80;99.90
17529;DHT22;8882;53.192;8.184;2022-11-09T07:00:48;12.70;99.90
17529;DHT22;8882;53.192;8.184;2022-11-09T07:03:15;12.70;99.90
17529;DHT22;8882;53.192;8.184;2022-11-09T07:05:41;12.70;99.90
17529;DHT22;8882;53.192;8.184;2022-11-09T07:08:06;12.70;99.90
17529;DHT22;8882;53.192;8.184;2022-11-09T07:10:32;12.70;99.90
17529;DHT22;8882;53.192;8.184;2022-11-09T07:12:57;12.70;99.90
17529;DHT22;8882;53.192;8.184;2022-11-09T07:15:24;12.60;99.90
17529;DHT22;8882;53.192;8.184;2022-11-09T07:17:49;12.60;99.90
17529;DHT22;8882;53.192;8.184;2022-11-09T07:20:15;12.60;99.90
17529;DHT22;8882;53.192;8.184;2022-11-09T07:22:40;12.60;99.90
17529;DHT22;8882;53.192;8.184;2022-11-09T07:25:07;12.60;99.90
17529;DHT22;8882;53.192;8.184;2022-11-09T07:27:34;12.60;99.90
17529;DHT22;8882;53.192;8.184;2022-11-09T07:30:00;12.60;99.90
17529;DHT22;8882;53.192;8.184;2022-11-09T07:32:25;12.60;99.90
17529;DHT22;8882;53.192;8.184;2022-11-09T07:34:51;12.60;99.90
17529;DHT22;8882;53.192;8.184;2022-11-09T07:37:16;12.60;99.90
17529;DHT22;8882;53.192;8.184;2022-11-09T07:39:42;12.60;99.90
17529;DHT22;8882;53.192;8.184;2022-11-09T07:42:07;12.60;99.90
17529;DHT22;8882;53.192;8.184;2022-11-09T07:44:33;12.60;99.90
17529;DHT22;8882;53.192;8.184;2022-11-09T07:46:58;12.60;99.90
17529;DHT22;8882;53.192;8.184;2022-11-09T07:49:24;12.60;99.90
17529;DHT22;8882;53.192;8.184;2022-11-09T07:51:49;12.70;99.90
17529;DHT22;8882;53.192;8.184;2022-11-09T07:54:15;12.70;99.90
17529;DHT22;8882;53.192;8.184;2022-11-09T07:56:40;12.70;99.90
17529;DHT22;8882;53.192;8.184;2022-11-09T07:59:06;12.70;99.90
17529;DHT22;8882;53.192;8.184;2022-11-09T08:01:31;12.80;99.90
17529;DHT22;8882;53.192;8.184;2022-11-09T08:03:57;12.80;99.90
17529;DHT22;8882;53.192;8.184;2022-11-09T08:06:22;12.80;99.90
17529;DHT22;8882;53.192;8.184;2022-11-09T08:08:53;12.80;99.90
17529;DHT22;8882;53.192;8.184;2022-11-09T08:11:18;12.80;99.90
17529;DHT22;8882;53.192;8.184;2022-11-09T08:13:44;12.90;99.90
17529;DHT22;8882;53.192;8.184;2022-11-09T08:16:10;12.90;99.90
17529;DHT22;8882;53.192;8.184;2022-11-09T08:18:35;12.90;99.90
17529;DHT22;8882;53.192;8.184;2022-11-09T08:21:02;13.00;99.90
17529;DHT22;8882;53.192;8.184;2022-11-09T08:23:28;13.10;99.90
17529;DHT22;8882;53.192;8.184;2022-11-09T08:25:53;13.10;99.90
17529;DHT22;8882;53.192;8.184;2022-11-09T08:28:19;13.10;99.90
17529;DHT22;8882;53.192;8.184;2022-11-09T08:30:45;13.20;99.90
17529;DHT22;8882;53.192;8.184;2022-11-09T08:33:18;13.30;99.90
17529;DHT22;8882;53.192;8.184;2022-11-09T08:35:43;13.30;99.90
17529;DHT22;8882;53.192;8.184;2022-11-09T08:38:09;13.30;99.90
17529;DHT22;8882;53.192;8.184;2022-11-09T08:40:35;13.50;99.90
17529;DHT22;8882;53.192;8.184;2022-11-09T08:43:03;13.50;99.90
17529;DHT22;8882;53.192;8.184;2022-11-09T08:45:33;13.50;99.90
17529;DHT22;8882;53.192;8.184;2022-11-09T08:47:59;13.50;99.90
17529;DHT22;8882;53.192;8.184;2022-11-09T08:50:26;13.50;99.90
17529;DHT22;8882;53.192;8.184;2022-11-09T08:52:52;13.60;99.90
17529;DHT22;8882;53.192;8.184;2022-11-09T08:55:17;13.60;99.90
17529;DHT22;8882;53.192;8.184;2022-11-09T08:57:43;13.60;99.90
17529;DHT22;8882;53.192;8.184;2022-11-09T09:00:09;13.70;99.90
17529;DHT22;8882;53.192;8.184;2022-11-09T09:02:34;13.70;99.90
17529;DHT22;8882;53.192;8.184;2022-11-09T09:05:00;13.80;99.90
17529;DHT22;8882;53.192;8.184;2022-11-09T09:07:25;13.90;99.90
17529;DHT22;8882;53.192;8.184;2022-11-09T09:09:51;13.90;99.90
17529;DHT22;8882;53.192;8.184;2022-11-09T09:12:17;13.90;99.90
17529;DHT22;8882;53.192;8.184;2022-11-09T09:14:43;14.00;99.90
17529;DHT22;8882;53.192;8.184;2022-11-09T09:17:08;14.00;99.90
17529;DHT22;8882;53.192;8.184;2022-11-09T09:19:34;14.10;99.90
17529;DHT22;8882;53.192;8.184;2022-11-09T09:22:00;14.20;99.90
17529;DHT22;8882;53.192;8.184;2022-11-09T09:24:25;14.30;99.90
17529;DHT22;8882;53.192;8.184;2022-11-09T09:26:51;14.40;99.90
17529;DHT22;8882;53.192;8.184;2022-11-09T09:29:17;14.40;99.90
17529;DHT22;8882;53.192;8.184;2022-11-09T09:31:42;14.40;99.90
17529;DHT22;8882;53.192;8.184;2022-11-09T09:34:08;14.30;99.90
17529;DHT22;8882;53.192;8.184;2022-11-09T09:36:35;14.30;99.90
17529;DHT22;8882;53.192;8.184;2022-11-09T09:39:01;14.30;99.90
17529;DHT22;8882;53.192;8.184;2022-11-09T09:41:44;14.40;99.90
17529;DHT22;8882;53.192;8.184;2022-11-09T09:44:17;14.40;99.90
17529;DHT22;8882;53.192;8.184;2022-11-09T09:49:36;14.40;99.90
17529;DHT22;8882;53.192;8.184;2022-11-09T09:52:08;14.30;99.90
17529;DHT22;8882;53.192;8.184;2022-11-09T09:54:40;14.30;99.90
17529;DHT22;8882;53.192;8.184;2022-11-09T09:57:18;14.30;99.90
17529;DHT22;8882;53.192;8.184;2022-11-09T09:59:49;14.30;99.90
17529;DHT22;8882;53.192;8.184;2022-11-09T10:02:22;14.30;99.90
17529;DHT22;8882;53.192;8.184;2022-11-09T10:04:48;14.30;99.90
17529;DHT22;8882;53.192;8.184;2022-11-09T10:07:20;14.30;99.90
17529;DHT22;8882;53.192;8.184;2022-11-09T10:12:41;14.30;99.90
17529;DHT22;8882;53.192;8.184;2022-11-09T10:15:30;14.40;99.90
17529;DHT22;8882;53.192;8.184;2022-11-09T10:18:22;14.40;99.90
17529;DHT22;8882;53.192;8.184;2022-11-09T10:23:42;14.40;99.90
17529;DHT22;8882;53.192;8.184;2022-11-09T10:26:19;14.30;99.90
17529;DHT22;8882;53.192;8.184;2022-11-09T10:28:52;14.40;99.90
17529;DHT22;8882;53.192;8.184;2022-11-09T10:31:21;14.50;99.90
17529;DHT22;8882;53.192;8.184;2022-11-09T10:33:56;14.50;99.90
17529;DHT22;8882;53.192;8.184;2022-11-09T10:36:36;14.70;99.90
17529;DHT22;8882;53.192;8.184;2022-11-09T10:39:07;14.90;99.90
17529;DHT22;8882;53.192;8.184;2022-11-09T10:41:44;15.10;99.90
17529;DHT22;8882;53.192;8.184;2022-11-09T10:44:14;15.20;99.90
17529;DHT22;8882;53.192;8.184;2022-11-09T10:49:27;15.30;99.90
17529;DHT22;8882;53.192;8.184;2022-11-09T10:51:52;15.30;99.90
17529;DHT22;8882;53.192;8.184;2022-11-09T10:54:29;15.50;99.90
17529;DHT22;8882;53.192;8.184;2022-11-09T10:57:09;15.50;99.90
17529;DHT22;8882;53.192;8.184;2022-11-09T10:59:51;15.40;99.90
17529;DHT22;8882;53.192;8.184;2022-11-09T11:07:32;15.30;99.90
17529;DHT22;8882;53.192;8.184;2022-11-09T11:10:18;15.50;99.90
17529;DHT22;8882;53.192;8.184;2022-11-09T11:13:18;15.70;99.90
17529;DHT22;8882;53.192;8.184;2022-11-09T11:15:45;15.60;99.90
17529;DHT22;8882;53.192;8.184;2022-11-09T11:18:23;15.50;99.90
17529;DHT22;8882;53.192;8.184;2022-11-09T11:21:16;15.50;99.90
17529;DHT22;8882;53.192;8.184;2022-11-09T11:23:42;15.50;99.90
17529;DHT22;8882;53.192;8.184;2022-11-09T11:26:30;15.60;99.90
17529;DHT22;8882;53.192;8.184;2022-11-09T11:29:00;15.80;99.90
17529;DHT22;8882;53.192;8.184;2022-11-09T11:31:26;15.90;99.90
17529;DHT22;8882;53.192;8.184;2022-11-09T11:33:52;15.90;99.90
17529;DHT22;8882;53.192;8.184;2022-11-09T11:45:12;15.60;99.90
17529;DHT22;8882;53.192;8.184;2022-11-09T11:56:25;15.60;99.90
17529;DHT22;8882;53.192;8.184;2022-11-09T12:01:43;15.70;99.90
17529;DHT22;8882;53.192;8.184;2022-11-09T12:07:08;15.80;99.90
17529;DHT22;8882;53.192;8.184;2022-11-09T12:18:15;15.50;99.90
17529;DHT22;8882;53.192;8.184;2022-11-09T12:23:56;15.30;99.90
17529;DHT22;8882;53.192;8.184;2022-11-09T12:26:40;15.30;99.90
17529;DHT22;8882;53.192;8.184;2022-11-09T12:29:20;15.40;99.90
17529;DHT22;8882;53.192;8.184;2022-11-09T12:32:11;15.50;99.90
17529;DHT22;8882;53.192;8.184;2022-11-09T12:34:44;15.50;99.90
17529;DHT22;8882;53.192;8.184;2022-11-09T12:37:16;15.50;99.90
17529;DHT22;8882;53.192;8.184;2022-11-09T12:39:45;15.50;99.90
17529;DHT22;8882;53.192;8.184;2022-11-09T12:42:19;15.60;99.90
17529;DHT22;8882;53.192;8.184;2022-11-09T12:47:55;15.60;99.90
17529;DHT22;8882;53.192;8.184;2022-11-09T12:50:24;15.70;99.90
17529;DHT22;8882;53.192;8.184;2022-11-09T12:52:51;15.50;99.90
17529;DHT22;8882;53.192;8.184;2022-11-09T12:55:27;15.40;99.90
17529;DHT22;8882;53.192;8.184;2022-11-09T12:57:54;15.40;99.90
17529;DHT22;8882;53.192;8.184;2022-11-09T13:03:05;15.30;99.90
17529;DHT22;8882;53.192;8.184;2022-11-09T13:05:36;15.20;99.90
17529;DHT22;8882;53.192;8.184;2022-11-09T13:08:04;15.30;99.90
17529;DHT22;8882;53.192;8.184;2022-11-09T13:10:32;15.30;99.90
17529;DHT22;8882;53.192;8.184;2022-11-09T13:13:04;15.20;99.90
17529;DHT22;8882;53.192;8.184;2022-11-09T13:37:34;15.00;99.90
17529;DHT22;8882;53.192;8.184;2022-11-09T13:40:32;15.00;99.90
17529;DHT22;8882;53.192;8.184;2022-11-09T13:42:55;14.90;99.90
17529;DHT22;8882;53.192;8.184;2022-11-09T13:45:32;14.90;99.90
17529;DHT22;8882;53.192;8.184;2022-11-09T13:47:58;14.80;99.90
17529;DHT22;8882;53.192;8.184;2022-11-09T13:50:26;14.80;99.90
17529;DHT22;8882;53.192;8.184;2022-11-09T13:52:55;14.80;99.90
17529;DHT22;8882;53.192;8.184;2022-11-09T13:57:54;14.70;99.90
17529;DHT22;8882;53.192;8.184;2022-11-09T14:00:23;14.70;99.90
17529;DHT22;8882;53.192;8.184;2022-11-09T14:03:14;14.70;99.90
17529;DHT22;8882;53.192;8.184;2022-11-09T14:05:41;14.70;99.90
17529;DHT22;8882;53.192;8.184;2022-11-09T14:08:34;14.60;99.90
17529;DHT22;8882;53.192;8.184;2022-11-09T14:16:35;14.60;99.90
17529;DHT22;8882;53.192;8.184;2022-11-09T14:21:47;14.60;99.90
17529;DHT22;8882;53.192;8.184;2022-11-09T14:24:22;14.60;99.90
17529;DHT22;8882;53.192;8.184;2022-11-09T14:27:10;14.60;99.90
17529;DHT22;8882;53.192;8.184;2022-11-09T14:32:24;14.40;99.90
17529;DHT22;8882;53.192;8.184;2022-11-09T14:34:49;14.40;99.90
17529;DHT22;8882;53.192;8.184;2022-11-09T14:37:15;14.40;99.90
17529;DHT22;8882;53.192;8.184;2022-11-09T14:39:47;14.40;99.90
17529;DHT22;8882;53.192;8.184;2022-11-09T14:42:18;14.40;99.90
17529;DHT22;8882;53.192;8.184;2022-11-09T14:44:45;14.40;99.90
17529;DHT22;8882;53.192;8.184;2022-11-09T14:47:19;14.40;99.90
17529;DHT22;8882;53.192;8.184;2022-11-09T14:49:46;14.40;99.90
17529;DHT22;8882;53.192;8.184;2022-11-09T14:52:16;14.40;99.90
17529;DHT22;8882;53.192;8.184;2022-11-09T14:54:44;14.40;99.90
17529;DHT22;8882;53.192;8.184;2022-11-09T14:57:13;14.40;99.90
17529;DHT22;8882;53.192;8.184;2022-11-09T14:59:41;14.30;99.90
17529;DHT22;8882;53.192;8.184;2022-11-09T15:02:15;14.20;99.90
17529;DHT22;8882;53.192;8.184;2022-11-09T15:04:58;14.00;99.90
17529;DHT22;8882;53.192;8.184;2022-11-09T15:07:34;13.90;99.90
17529;DHT22;8882;53.192;8.184;2022-11-09T15:10:04;13.80;99.90
17529;DHT22;8882;53.192;8.184;2022-11-09T15:12:30;13.80;99.90
17529;DHT22;8882;53.192;8.184;2022-11-09T15:14:59;13.80;99.90
17529;DHT22;8882;53.192;8.184;2022-11-09T15:17:37;13.70;99.90
17529;DHT22;8882;53.192;8.184;2022-11-09T15:27:59;13.70;99.90
17529;DHT22;8882;53.192;8.184;2022-11-09T15:30:36;13.70;99.90
17529;DHT22;8882;53.192;8.184;2022-11-09T15:39:00;13.60;99.90
17529;DHT22;8882;53.192;8.184;2022-11-09T15:41:27;13.60;99.90
17529;DHT22;8882;53.192;8.184;2022-11-09T15:43:53;13.50;99.90
17529;DHT22;8882;53.192;8.184;2022-11-09T15:46:22;13.50;99.90
17529;DHT22;8882;53.192;8.184;2022-11-09T15:48:48;13.40;99.90
17529;DHT22;8882;53.192;8.184;2022-11-09T15:51:14;13.40;99.90
17529;DHT22;8882;53.192;8.184;2022-11-09T15:53:40;13.30;99.90
17529;DHT22;8882;53.192;8.184;2022-11-09T15:56:06;13.20;99.90
17529;DHT22;8882;53.192;8.184;2022-11-09T15:58:34;13.30;99.90
17529;DHT22;8882;53.192;8.184;2022-11-09T16:00:59;13.30;99.90
17529;DHT22;8882;53.192;8.184;2022-11-09T16:03:25;13.30;99.90
17529;DHT22;8882;53.192;8.184;2022-11-09T16:05:50;13.10;99.90
17529;DHT22;8882;53.192;8.184;2022-11-09T16:08:16;13.20;99.90
17529;DHT22;8882;53.192;8.184;2022-11-09T16:10:41;13.20;99.90
17529;DHT22;8882;53.192;8.184;2022-11-09T16:13:09;13.10;99.90
17529;DHT22;8882;53.192;8.184;2022-11-09T16:15:35;13.10;99.90
17529;DHT22;8882;53.192;8.184;2022-11-09T16:18:02;13.00;99.90
17529;DHT22;8882;53.192;8.184;2022-11-09T16:20:27;13.00;99.90
17529;DHT22;8882;53.192;8.184;2022-11-09T16:22:53;13.00;99.90
17529;DHT22;8882;53.192;8.184;2022-11-09T16:25:19;13.00;99.90
17529;DHT22;8882;53.192;8.184;2022-11-09T16:27:44;13.00;99.90
17529;DHT22;8882;53.192;8.184;2022-11-09T16:30:10;13.10;99.90
17529;DHT22;8882;53.192;8.184;2022-11-09T16:32:36;13.10;99.90
17529;DHT22;8882;53.192;8.184;2022-11-09T16:35:03;13.20;99.90
17529;DHT22;8882;53.192;8.184;2022-11-09T16:37:31;13.20;99.90
17529;DHT22;8882;53.192;8.184;2022-11-09T16:39:59;13.00;99.90
17529;DHT22;8882;53.192;8.184;2022-11-09T16:42:26;13.00;99.90
17529;DHT22;8882;53.192;8.184;2022-11-09T16:44:52;13.00;99.90
17529;DHT22;8882;53.192;8.184;2022-11-09T16:47:18;13.00;99.90
17529;DHT22;8882;53.192;8.184;2022-11-09T16:49:44;13.10;99.90
17529;DHT22;8882;53.192;8.184;2022-11-09T16:52:09;13.10;99.90
17529;DHT22;8882;53.192;8.184;2022-11-09T16:54:35;13.10;99.90
17529;DHT22;8882;53.192;8.184;2022-11-09T16:57:01;13.10;99.90
17529;DHT22;8882;53.192;8.184;2022-11-09T16:59:26;12.90;99.90
17529;DHT22;8882;53.192;8.184;2022-11-09T17:01:55;12.80;99.90
17529;DHT22;8882;53.192;8.184;2022-11-09T17:04:21;12.80;99.90
17529;DHT22;8882;53.192;8.184;2022-11-09T17:06:47;12.80;99.90
17529;DHT22;8882;53.192;8.184;2022-11-09T17:09:13;12.80;99.90
17529;DHT22;8882;53.192;8.184;2022-11-09T17:11:38;12.80;99.90
17529;DHT22;8882;53.192;8.184;2022-11-09T17:14:04;12.80;99.90
17529;DHT22;8882;53.192;8.184;2022-11-09T17:16:30;12.70;99.90
17529;DHT22;8882;53.192;8.184;2022-11-09T17:18:57;12.80;99.90
17529;DHT22;8882;53.192;8.184;2022-11-09T17:21:24;12.80;99.90
17529;DHT22;8882;53.192;8.184;2022-11-09T17:23:50;12.80;99.90
17529;DHT22;8882;53.192;8.184;2022-11-09T17:26:16;12.80;99.90
17529;DHT22;8882;53.192;8.184;2022-11-09T17:28:42;12.80;99.90
17529;DHT22;8882;53.192;8.184;2022-11-09T17:31:09;12.60;99.90
17529;DHT22;8882;53.192;8.184;2022-11-09T17:33:35;12.70;99.90
17529;DHT22;8882;53.192;8.184;2022-11-09T17:36:03;12.60;99.90
17529;DHT22;8882;53.192;8.184;2022-11-09T17:38:29;12.60;99.90
17529;DHT22;8882;53.192;8.184;2022-11-09T17:41:12;12.60;99.90
17529;DHT22;8882;53.192;8.184;2022-11-09T17:43:39;12.50;99.90
17529;DHT22;8882;53.192;8.184;2022-11-09T17:46:14;12.60;99.90
17529;DHT22;8882;53.192;8.184;2022-11-09T17:48:41;12.40;99.90
17529;DHT22;8882;53.192;8.184;2022-11-09T17:51:08;12.50;99.90
17529;DHT22;8882;53.192;8.184;2022-11-09T17:53:34;12.50;99.90
17529;DHT22;8882;53.192;8.184;2022-11-09T17:56:00;12.40;99.90
17529;DHT22;8882;53.192;8.184;2022-11-09T17:58:27;12.20;99.90
17529;DHT22;8882;53.192;8.184;2022-11-09T18:00:52;12.30;99.90
17529;DHT22;8882;53.192;8.184;2022-11-09T18:03:18;12.30;99.90
17529;DHT22;8882;53.192;8.184;2022-11-09T18:05:44;12.30;99.90
17529;DHT22;8882;53.192;8.184;2022-11-09T18:08:11;12.30;99.90
17529;DHT22;8882;53.192;8.184;2022-11-09T18:10:38;12.30;99.90
17529;DHT22;8882;53.192;8.184;2022-11-09T18:13:04;12.20;99.90
17529;DHT22;8882;53.192;8.184;2022-11-09T18:15:30;12.30;99.90
17529;DHT22;8882;53.192;8.184;2022-11-09T18:17:55;12.30;99.90
17529;DHT22;8882;53.192;8.184;2022-11-09T18:20:21;12.40;99.90
17529;DHT22;8882;53.192;8.184;2022-11-09T18:22:50;12.30;99.90
17529;DHT22;8882;53.192;8.184;2022-11-09T18:25:16;12.30;99.90
17529;DHT22;8882;53.192;8.184;2022-11-09T18:27:41;12.20;99.90
17529;DHT22;8882;53.192;8.184;2022-11-09T18:30:07;12.20;99.90
17529;DHT22;8882;53.192;8.184;2022-11-09T18:32:33;12.20;99.90
17529;DHT22;8882;53.192;8.184;2022-11-09T18:34:58;12.20;99.90
17529;DHT22;8882;53.192;8.184;2022-11-09T18:37:24;12.20;99.90
17529;DHT22;8882;53.192;8.184;2022-11-09T18:39:49;12.20;99.90
17529;DHT22;8882;53.192;8.184;2022-11-09T18:42:15;12.10;99.90
17529;DHT22;8882;53.192;8.184;2022-11-09T18:44:40;12.00;99.90
17529;DHT22;8882;53.192;8.184;2022-11-09T18:47:06;12.00;99.90
17529;DHT22;8882;53.192;8.184;2022-11-09T18:49:34;12.00;99.90
17529;DHT22;8882;53.192;8.184;2022-11-09T18:52:01;12.00;99.90
17529;DHT22;8882;53.192;8.184;2022-11-09T18:54:27;12.00;99.90
17529;DHT22;8882;53.192;8.184;2022-11-09T18:56:52;12.00;99.90
17529;DHT22;8882;53.192;8.184;2022-11-09T18:59:18;11.90;99.90
17529;DHT22;8882;53.192;8.184;2022-11-09T19:01:44;12.00;99.90
17529;DHT22;8882;53.192;8.184;2022-11-09T19:04:13;11.90;99.90
17529;DHT22;8882;53.192;8.184;2022-11-09T19:06:39;11.90;99.90
17529;DHT22;8882;53.192;8.184;2022-11-09T19:09:04;11.90;99.90
17529;DHT22;8882;53.192;8.184;2022-11-09T19:11:49;11.90;99.90
17529;DHT22;8882;53.192;8.184;2022-11-09T19:14:14;12.00;99.90
17529;DHT22;8882;53.192;8.184;2022-11-09T19:16:40;12.00;99.90
17529;DHT22;8882;53.192;8.184;2022-11-09T19:19:05;12.00;99.90
17529;DHT22;8882;53.192;8.184;2022-11-09T19:21:47;12.00;99.90
17529;DHT22;8882;53.192;8.184;2022-11-09T19:24:14;12.00;99.90
17529;DHT22;8882;53.192;8.184;2022-11-09T19:26:41;12.00;99.90
17529;DHT22;8882;53.192;8.184;2022-11-09T19:29:07;12.00;99.90
17529;DHT22;8882;53.192;8.184;2022-11-09T19:31:34;12.00;99.90
17529;DHT22;8882;53.192;8.184;2022-11-09T19:34:00;11.90;99.90
17529;DHT22;8882;53.192;8.184;2022-11-09T19:36:28;11.90;99.90
17529;DHT22;8882;53.192;8.184;2022-11-09T19:38:54;11.90;99.90
17529;DHT22;8882;53.192;8.184;2022-11-09T19:41:19;11.90;99.90
17529;DHT22;8882;53.192;8.184;2022-11-09T19:43:49;11.80;99.90
17529;DHT22;8882;53.192;8.184;2022-11-09T19:46:16;11.80;99.90
17529;DHT22;8882;53.192;8.184;2022-11-09T19:48:45;11.90;99.90
17529;DHT22;8882;53.192;8.184;2022-11-09T19:51:12;11.90;99.90
17529;DHT22;8882;53.192;8.184;2022-11-09T19:53:38;12.00;99.90
17529;DHT22;8882;53.192;8.184;2022-11-09T19:56:04;12.00;99.90
17529;DHT22;8882;53.192;8.184;2022-11-09T19:58:35;12.00;99.90
17529;DHT22;8882;53.192;8.184;2022-11-09T20:01:06;12.00;99.90
17529;DHT22;8882;53.192;8.184;2022-11-09T20:03:32;12.00;99.90
17529;DHT22;8882;53.192;8.184;2022-11-09T20:05:58;12.00;99.90
17529;DHT22;8882;53.192;8.184;2022-11-09T20:08:24;12.00;99.90
17529;DHT22;8882;53.192;8.184;2022-11-09T20:10:50;12.00;99.90
17529;DHT22;8882;53.192;8.184;2022-11-09T20:13:17;12.00;99.90
17529;DHT22;8882;53.192;8.184;2022-11-09T20:15:43;11.90;99.90
17529;DHT22;8882;53.192;8.184;2022-11-09T20:18:09;12.00;99.90
17529;DHT22;8882;53.192;8.184;2022-11-09T20:20:35;12.00;99.90
17529;DHT22;8882;53.192;8.184;2022-11-09T20:23:00;12.00;99.90
17529;DHT22;8882;53.192;8.184;2022-11-09T20:25:26;12.00;99.90
17529;DHT22;8882;53.192;8.184;2022-11-09T20:27:51;12.00;99.90
17529;DHT22;8882;53.192;8.184;2022-11-09T20:30:17;12.00;99.90
17529;DHT22;8882;53.192;8.184;2022-11-09T20:32:43;11.90;99.90
17529;DHT22;8882;53.192;8.184;2022-11-09T20:35:08;12.00;99.90
17529;DHT22;8882;53.192;8.184;2022-11-09T20:37:34;12.00;99.90
17529;DHT22;8882;53.192;8.184;2022-11-09T20:40:01;12.00;99.90
17529;DHT22;8882;53.192;8.184;2022-11-09T20:42:26;11.90;99.90
17529;DHT22;8882;53.192;8.184;2022-11-09T20:44:52;11.90;99.90
17529;DHT22;8882;53.192;8.184;2022-11-09T20:47:19;11.90;99.90
17529;DHT22;8882;53.192;8.184;2022-11-09T20:49:44;11.90;99.90
17529;DHT22;8882;53.192;8.184;2022-11-09T20:52:11;11.90;99.90
17529;DHT22;8882;53.192;8.184;2022-11-09T20:54:37;11.90;99.90
17529;DHT22;8882;53.192;8.184;2022-11-09T20:57:02;11.90;99.90
17529;DHT22;8882;53.192;8.184;2022-11-09T20:59:28;11.90;99.90
17529;DHT22;8882;53.192;8.184;2022-11-09T21:01:53;11.90;99.90
17529;DHT22;8882;53.192;8.184;2022-11-09T21:04:19;11.80;99.90
17529;DHT22;8882;53.192;8.184;2022-11-09T21:06:44;11.80;99.90
17529;DHT22;8882;53.192;8.184;2022-11-09T21:09:10;11.80;99.90
17529;DHT22;8882;53.192;8.184;2022-11-09T21:11:36;11.80;99.90
17529;DHT22;8882;53.192;8.184;2022-11-09T21:14:21;11.80;99.90
17529;DHT22;8882;53.192;8.184;2022-11-09T21:16:47;11.80;99.90
17529;DHT22;8882;53.192;8.184;2022-11-09T21:19:13;11.80;99.90
17529;DHT22;8882;53.192;8.184;2022-11-09T21:21:38;11.80;99.90
17529;DHT22;8882;53.192;8.184;2022-11-09T21:24:04;11.80;99.90
17529;DHT22;8882;53.192;8.184;2022-11-09T21:26:48;11.80;99.90
17529;DHT22;8882;53.192;8.184;2022-11-09T21:29:32;11.80;99.90
17529;DHT22;8882;53.192;8.184;2022-11-09T21:32:17;11.70;99.90
17529;DHT22;8882;53.192;8.184;2022-11-09T21:34:43;11.70;99.90
17529;DHT22;8882;53.192;8.184;2022-11-09T21:37:09;11.70;99.90
17529;DHT22;8882;53.192;8.184;2022-11-09T21:39:35;11.70;99.90
17529;DHT22;8882;53.192;8.184;2022-11-09T21:42:01;11.60;99.90
17529;DHT22;8882;53.192;8.184;2022-11-09T21:44:29;11.70;99.90
17529;DHT22;8882;53.192;8.184;2022-11-09T21:46:55;11.70;99.90
17529;DHT22;8882;53.192;8.184;2022-11-09T21:49:21;11.60;99.90
17529;DHT22;8882;53.192;8.184;2022-11-09T21:51:47;11.70;99.90
17529;DHT22;8882;53.192;8.184;2022-11-09T21:54:13;11.60;99.90
17529;DHT22;8882;53.192;8.184;2022-11-09T21:56:38;11.60;99.90
17529;DHT22;8882;53.192;8.184;2022-11-09T21:59:04;11.60;99.90
